createdAt,value
2023-03-24T00:00:20.584Z,13.23
2023-03-24T00:02:49.106Z,13.19
2023-03-24T00:05:21.623Z,13.02
2023-03-24T00:07:54.775Z,12.99
2023-03-24T00:10:22.709Z,13.15
2023-03-24T00:12:51.015Z,13.13
2023-03-24T00:15:21.180Z,12.96
2023-03-24T00:17:51.819Z,13.27
2023-03-24T00:20:20.842Z,13.21
2023-03-24T00:22:51.082Z,13.02
2023-03-24T00:25:20.302Z,13.16
2023-03-24T00:27:48.859Z,13.08
2023-03-24T00:30:17.508Z,13.09
2023-03-24T00:32:45.116Z,12.94
2023-03-24T00:35:14.775Z,13.06
2023-03-24T00:37:42.831Z,12.96
2023-03-24T00:40:13.101Z,12.97
2023-03-24T00:42:41.332Z,13.01
2023-03-24T00:45:12.127Z,13.13
2023-03-24T00:47:39.222Z,13.13
2023-03-24T00:50:09.768Z,13.14
2023-03-24T00:52:37.896Z,12.97
2023-03-24T00:55:06.218Z,13.21
2023-03-24T00:57:35.979Z,13.37
2023-03-24T01:00:14.633Z,13.05
2023-03-24T01:02:43.912Z,13.08
2023-03-24T01:05:11.247Z,13.10
2023-03-24T01:07:41.549Z,13.26
2023-03-24T01:10:13.084Z,13.05
2023-03-24T01:12:40.880Z,12.96
2023-03-24T01:15:19.921Z,12.86
2023-03-24T01:17:48.682Z,12.85
2023-03-24T01:20:16.173Z,13.12
2023-03-24T01:22:45.042Z,13.14
2023-03-24T01:25:17.809Z,13.27
2023-03-24T01:27:46.629Z,13.23
2023-03-24T01:30:16.108Z,13.23
2023-03-24T01:32:43.954Z,13.21
2023-03-24T01:35:11.806Z,13.19
2023-03-24T01:37:39.265Z,13.13
2023-03-24T01:40:11.357Z,13.07
2023-03-24T01:42:39.560Z,13.07
2023-03-24T01:45:38.610Z,13.27
2023-03-24T01:48:15.493Z,13.37
2023-03-24T01:50:46.667Z,13.19
2023-03-24T01:53:13.700Z,13.17
2023-03-24T01:55:40.542Z,13.35
2023-03-24T01:58:08.841Z,13.21
2023-03-24T02:00:51.202Z,13.11
2023-03-24T02:03:40.115Z,13.06
2023-03-24T02:06:08.678Z,13.12
2023-03-24T02:08:50.748Z,13.14
2023-03-24T02:11:17.495Z,13.09
2023-03-24T02:13:51.506Z,13.15
2023-03-24T02:16:33.011Z,13.15
2023-03-24T02:19:25.204Z,12.96
2023-03-24T02:22:26.414Z,13.25
2023-03-24T02:25:44.103Z,13.18
2023-03-24T02:28:27.995Z,13.19
2023-03-24T02:31:16.291Z,13.22
2023-03-24T02:34:13.543Z,13.31
2023-03-24T02:36:55.402Z,13.20
2023-03-24T02:39:53.293Z,13.30
2023-03-24T02:42:40.153Z,13.39
2023-03-24T02:45:12.912Z,13.29
2023-03-24T02:47:58.163Z,13.41
2023-03-24T02:50:53.838Z,13.39
2023-03-24T02:53:33.009Z,13.33
2023-03-24T02:56:33.407Z,13.49
2023-03-24T02:59:32.542Z,13.55
2023-03-24T03:02:08.605Z,13.47
2023-03-24T03:04:57.960Z,13.42
2023-03-24T03:07:27.370Z,13.55
2023-03-24T03:10:02.415Z,13.34
2023-03-24T03:12:34.786Z,13.43
2023-03-24T03:15:15.970Z,13.45
2023-03-24T03:17:53.506Z,13.45
2023-03-24T03:20:24.296Z,13.46
2023-03-24T03:23:00.855Z,13.21
2023-03-24T03:25:33.174Z,13.09
2023-03-24T03:28:03.680Z,13.32
2023-03-24T03:30:40.129Z,13.21
2023-03-24T03:33:13.258Z,13.28
2023-03-24T03:36:02.956Z,13.22
2023-03-24T03:39:09.703Z,13.28
2023-03-24T03:41:38.606Z,13.36
2023-03-24T03:44:05.517Z,13.31
2023-03-24T03:46:32.623Z,13.20
2023-03-24T03:48:59.859Z,13.12
2023-03-24T03:51:27.148Z,13.32
2023-03-24T03:54:01.157Z,13.26
2023-03-24T03:56:32.560Z,13.30
2023-03-24T03:59:35.453Z,13.33
2023-03-24T04:02:28.219Z,13.11
2023-03-24T04:05:14.695Z,13.17
2023-03-24T04:08:03.569Z,13.27
2023-03-24T04:11:17.957Z,13.39
2023-03-24T04:14:22.925Z,13.42
2023-03-24T04:17:41.650Z,13.31
2023-03-24T04:20:14.728Z,13.44
2023-03-24T04:23:09.356Z,13.44
2023-03-24T04:25:49.878Z,13.41
2023-03-24T04:28:26.513Z,13.23
2023-03-24T04:31:28.103Z,13.38
2023-03-24T04:34:07.606Z,13.44
2023-03-24T04:37:04.069Z,13.34
2023-03-24T04:39:58.895Z,13.50
2023-03-24T04:42:36.129Z,13.66
2023-03-24T04:45:05.756Z,13.55
2023-03-24T04:48:00.254Z,13.51
2023-03-24T04:50:40.484Z,13.64
2023-03-24T04:53:13.332Z,13.72
2023-03-24T04:55:49.472Z,13.70
2023-03-24T04:58:22.884Z,13.58
2023-03-24T05:00:50.435Z,13.85
2023-03-24T05:03:18.767Z,13.69
2023-03-24T05:05:48.365Z,13.75
2023-03-24T05:08:16.561Z,13.76
2023-03-24T05:10:43.749Z,13.80
2023-03-24T05:13:11.494Z,13.72
2023-03-24T05:15:40.579Z,13.74
2023-03-24T05:18:27.405Z,13.78
2023-03-24T05:20:56.351Z,13.60
2023-03-24T05:23:23.216Z,13.60
2023-03-24T05:25:50.666Z,13.68
2023-03-24T05:28:19.269Z,13.76
2023-03-24T05:30:46.708Z,13.52
2023-03-24T05:33:33.649Z,13.60
2023-03-24T05:36:01.248Z,13.43
2023-03-24T05:38:28.350Z,13.77
2023-03-24T05:40:58.189Z,13.50
2023-03-24T05:43:28.544Z,13.31
2023-03-24T05:46:03.998Z,13.40
2023-03-24T05:48:33.082Z,13.46
2023-03-24T05:51:17.677Z,13.40
2023-03-24T05:53:45.936Z,13.53
2023-03-24T05:56:15.492Z,13.49
2023-03-24T05:58:58.772Z,13.45
2023-03-24T06:01:43.345Z,13.30
2023-03-24T06:04:21.078Z,13.49
2023-03-24T06:06:49.457Z,13.46
2023-03-24T06:09:20.342Z,13.39
2023-03-24T06:11:47.126Z,13.15
2023-03-24T06:14:14.746Z,13.18
2023-03-24T06:16:53.321Z,13.18
2023-03-24T06:19:22.615Z,12.91
2023-03-24T06:22:02.956Z,12.77
2023-03-24T06:24:34.419Z,12.71
2023-03-24T06:27:08.948Z,12.65
2023-03-24T06:29:36.494Z,12.72
2023-03-24T06:32:03.599Z,12.34
2023-03-24T06:34:38.850Z,12.49
2023-03-24T06:37:16.918Z,12.20
2023-03-24T06:39:43.978Z,12.39
2023-03-24T06:42:14.680Z,12.22
2023-03-24T06:44:42.022Z,12.14
2023-03-24T06:47:08.718Z,12.18
2023-03-24T06:49:37.146Z,12.11
2023-03-24T06:52:04.782Z,11.84
2023-03-24T06:54:34.300Z,11.90
2023-03-24T06:57:01.932Z,11.61
2023-03-24T06:59:49.163Z,11.82
2023-03-24T07:02:15.914Z,12.11
2023-03-24T07:04:45.796Z,12.16
2023-03-24T07:10:14.204Z,11.81
2023-03-24T07:12:41.510Z,11.79
2023-03-24T07:15:09.382Z,11.53
2023-03-24T07:17:36.349Z,11.60
2023-03-24T07:20:12.424Z,11.72
2023-03-24T07:22:42.413Z,11.59
2023-03-24T07:25:24.560Z,11.71
2023-03-24T07:28:14.319Z,12.00
2023-03-24T07:30:41.748Z,12.03
2023-03-24T07:33:12.744Z,12.26
2023-03-24T07:35:41.930Z,12.10
2023-03-24T07:38:10.648Z,12.10
2023-03-24T07:40:37.889Z,12.30
2023-03-24T07:43:05.882Z,12.41
2023-03-24T07:45:51.610Z,12.21
2023-03-24T07:48:18.407Z,12.19
2023-03-24T07:50:45.362Z,12.43
2023-03-24T07:53:33.822Z,12.27
2023-03-24T07:56:00.809Z,12.41
2023-03-24T07:58:27.944Z,12.36
2023-03-24T08:01:10.478Z,12.52
2023-03-24T08:03:42.575Z,12.57
2023-03-24T08:06:15.640Z,12.42
2023-03-24T08:08:50.504Z,12.41
2023-03-24T08:11:17.157Z,12.34
2023-03-24T08:13:43.793Z,12.69
2023-03-24T08:16:10.589Z,12.49
2023-03-24T08:18:37.198Z,12.49
2023-03-24T08:21:03.861Z,12.73
2023-03-24T08:23:30.445Z,13.01
2023-03-24T08:25:57.318Z,13.10
2023-03-24T08:28:23.986Z,13.06
2023-03-24T08:30:50.868Z,13.24
2023-03-24T08:33:17.943Z,13.48
2023-03-24T08:35:48.234Z,13.24
2023-03-24T08:38:18.577Z,13.65
2023-03-24T08:40:45.985Z,13.35
2023-03-24T08:43:15.996Z,13.29
2023-03-24T08:45:42.943Z,13.18
2023-03-24T08:48:09.982Z,13.14
2023-03-24T08:50:41.014Z,13.16
2023-03-24T08:53:08.782Z,13.18
2023-03-24T08:55:37.891Z,12.99
2023-03-24T08:58:04.777Z,13.33
2023-03-24T09:00:31.524Z,13.52
2023-03-24T09:02:58.665Z,13.48
2023-03-24T09:05:40.685Z,13.39
2023-03-24T09:08:12.381Z,13.58
2023-03-24T09:10:39.951Z,13.13
2023-03-24T09:13:07.018Z,13.40
2023-03-24T09:15:33.732Z,13.48
2023-03-24T09:18:00.827Z,13.65
2023-03-24T09:20:27.474Z,13.77
2023-03-24T09:22:55.851Z,13.35
2023-03-24T09:25:23.812Z,13.31
2023-03-24T09:27:50.453Z,13.62
2023-03-24T09:30:18.216Z,13.76
2023-03-24T09:32:45.879Z,13.74
2023-03-24T09:35:13.179Z,13.97
2023-03-24T09:37:41.119Z,13.57
2023-03-24T09:40:08.246Z,13.48
2023-03-24T09:42:41.541Z,13.85
2023-03-24T09:45:18.165Z,13.63
2023-03-24T09:47:52.542Z,13.78
2023-03-24T09:50:43.307Z,14.08
2023-03-24T09:53:29.235Z,14.21
2023-03-24T09:55:57.379Z,13.92
2023-03-24T09:58:29.671Z,13.94
2023-03-24T10:00:57.620Z,14.02
2023-03-24T10:03:24.494Z,14.11
2023-03-24T10:06:26.664Z,14.16
2023-03-24T10:09:15.762Z,14.11
2023-03-24T10:12:00.610Z,14.76
2023-03-24T10:14:45.351Z,14.25
2023-03-24T10:17:23.934Z,14.45
2023-03-24T10:20:09.389Z,14.61
2023-03-24T10:22:54.623Z,14.49
2023-03-24T10:25:30.953Z,14.80
2023-03-24T10:28:16.865Z,14.84
2023-03-24T10:30:46.228Z,15.04
2023-03-24T10:33:15.022Z,14.95
2023-03-24T10:35:51.745Z,14.88
2023-03-24T10:38:21.272Z,15.48
2023-03-24T10:40:48.908Z,15.78
2023-03-24T10:43:19.492Z,15.72
2023-03-24T10:45:52.443Z,15.21
2023-03-24T10:48:43.176Z,15.41
2023-03-24T10:51:19.416Z,15.17
2023-03-24T10:53:48.701Z,15.36
2023-03-24T10:56:38.306Z,16.13
2023-03-24T10:59:19.050Z,16.56
2023-03-24T11:01:46.671Z,16.32
2023-03-24T11:04:16.898Z,16.52
2023-03-24T11:07:11.243Z,16.68
2023-03-24T11:09:46.521Z,16.45
2023-03-24T11:12:28.102Z,16.87
2023-03-24T11:15:20.981Z,16.68
2023-03-24T11:18:01.823Z,15.74
2023-03-24T11:20:43.818Z,15.51
2023-03-24T11:23:31.315Z,15.11
2023-03-24T11:26:06.950Z,14.78
2023-03-24T11:28:39.267Z,14.88
2023-03-24T11:31:09.130Z,15.26
2023-03-24T11:34:02.770Z,14.89
2023-03-24T11:36:38.249Z,14.68
2023-03-24T11:39:18.018Z,14.59
2023-03-24T11:42:03.347Z,14.40
2023-03-24T11:44:49.298Z,14.60
2023-03-24T11:47:32.584Z,14.78
2023-03-24T11:50:12.100Z,15.15
2023-03-24T11:52:46.608Z,15.22
2023-03-24T11:55:37.808Z,15.39
2023-03-24T11:58:21.517Z,15.59
2023-03-24T12:01:04.432Z,15.29
2023-03-24T12:04:02.517Z,15.44
2023-03-24T12:07:07.610Z,15.95
2023-03-24T12:10:06.225Z,16.01
2023-03-24T12:13:08.371Z,16.12
2023-03-24T12:15:50.736Z,16.29
2023-03-24T12:18:41.520Z,16.42
2023-03-24T12:21:19.475Z,16.22
2023-03-24T12:23:59.628Z,16.27
2023-03-24T12:26:31.140Z,16.43
2023-03-24T12:29:29.799Z,16.67
2023-03-24T12:32:24.875Z,16.00
2023-03-24T12:35:06.718Z,16.65
2023-03-24T12:37:52.583Z,16.65
2023-03-24T12:40:40.926Z,16.22
2023-03-24T12:43:29.885Z,15.91
2023-03-24T12:46:00.042Z,16.16
2023-03-24T12:48:36.068Z,15.84
2023-03-24T12:51:35.601Z,16.29
2023-03-24T12:54:17.337Z,15.90
2023-03-24T12:57:08.144Z,15.80
2023-03-24T12:59:41.626Z,16.17
2023-03-24T13:02:21.565Z,16.43
2023-03-24T13:04:49.504Z,17.41
2023-03-24T13:07:25.916Z,16.77
2023-03-24T13:10:19.079Z,16.04
2023-03-24T13:13:24.514Z,15.71
2023-03-24T13:16:17.640Z,15.28
2023-03-24T13:18:51.681Z,15.62
2023-03-24T13:21:21.212Z,15.84
2023-03-24T13:23:59.342Z,15.31
2023-03-24T13:26:39.778Z,15.47
2023-03-24T13:29:24.831Z,15.63
2023-03-24T13:31:57.710Z,16.02
2023-03-24T13:34:30.031Z,15.82
2023-03-24T13:37:06.606Z,15.37
2023-03-24T13:39:36.484Z,15.75
2023-03-24T13:42:03.927Z,16.26
2023-03-24T13:44:38.516Z,16.87
2023-03-24T13:47:06.849Z,17.14
2023-03-24T13:49:34.203Z,17.00
2023-03-24T13:52:06.551Z,16.93
2023-03-24T13:54:37.676Z,17.23
2023-03-24T13:57:08.467Z,16.74
2023-03-24T14:00:08.602Z,17.00
2023-03-24T14:02:49.938Z,16.82
2023-03-24T14:05:23.948Z,17.08
2023-03-24T14:08:11.663Z,17.33
2023-03-24T14:10:44.536Z,16.75
2023-03-24T14:13:14.174Z,16.24
2023-03-24T14:15:45.380Z,16.52
2023-03-24T14:18:22.547Z,16.51
2023-03-24T14:20:58.351Z,16.67
2023-03-24T14:23:45.730Z,16.66
2023-03-24T14:26:12.376Z,16.11
2023-03-24T14:28:50.561Z,16.17
2023-03-24T14:31:29.014Z,16.33
2023-03-24T14:34:03.478Z,16.21
2023-03-24T14:36:40.033Z,15.84
2023-03-24T14:39:21.524Z,16.10
2023-03-24T14:41:51.965Z,16.58
2023-03-24T14:44:47.078Z,16.08
2023-03-24T14:47:20.258Z,16.07
2023-03-24T14:49:48.705Z,15.92
2023-03-24T14:52:24.392Z,15.80
2023-03-24T14:54:59.429Z,15.79
2023-03-24T14:57:32.261Z,15.29
2023-03-24T15:00:11.809Z,14.92
2023-03-24T15:02:50.880Z,12.73
2023-03-24T15:05:23.126Z,12.28
2023-03-24T15:08:13.734Z,11.50
2023-03-24T15:10:58.269Z,11.23
2023-03-24T15:13:30.264Z,11.21
2023-03-24T15:15:57.754Z,11.33
2023-03-24T15:18:25.746Z,10.93
2023-03-24T15:20:53.386Z,10.83
2023-03-24T15:23:31.384Z,11.02
2023-03-24T15:25:58.043Z,11.01
2023-03-24T15:28:26.716Z,11.31
2023-03-24T15:30:56.039Z,10.92
2023-03-24T15:33:23.448Z,11.27
2023-03-24T15:35:56.678Z,11.26
2023-03-24T15:38:32.911Z,11.22
2023-03-24T15:40:59.498Z,11.52
2023-03-24T15:43:26.096Z,11.67
2023-03-24T15:46:04.573Z,11.59
2023-03-24T15:48:38.170Z,11.95
2023-03-24T15:51:08.726Z,12.03
2023-03-24T15:53:44.363Z,11.85
2023-03-24T15:56:31.969Z,12.22
2023-03-24T15:59:13.759Z,12.33
2023-03-24T16:01:44.015Z,12.13
2023-03-24T16:04:15.927Z,12.43
2023-03-24T16:06:50.093Z,12.48
2023-03-24T16:09:27.473Z,12.50
2023-03-24T16:11:54.455Z,12.63
2023-03-24T16:14:25.720Z,12.45
2023-03-24T16:16:57.270Z,12.33
2023-03-24T16:19:25.308Z,12.67
2023-03-24T16:21:52.010Z,12.83
2023-03-24T16:24:18.606Z,12.67
2023-03-24T16:26:46.196Z,12.64
2023-03-24T16:29:23.615Z,12.80
2023-03-24T16:31:52.389Z,12.84
2023-03-24T16:34:21.204Z,12.56
2023-03-24T16:36:49.616Z,12.59
2023-03-24T16:39:19.345Z,12.73
2023-03-24T16:41:46.364Z,12.66
2023-03-24T16:44:13.496Z,12.57
2023-03-24T16:46:41.198Z,12.53
2023-03-24T16:49:11.502Z,12.28
2023-03-24T16:51:38.202Z,12.60
2023-03-24T16:54:04.927Z,12.76
2023-03-24T16:56:31.755Z,12.76
2023-03-24T16:58:58.472Z,12.78
2023-03-24T17:01:33.405Z,12.93
2023-03-24T17:04:01.776Z,12.99
2023-03-24T17:06:30.770Z,12.85
2023-03-24T17:08:58.141Z,12.73
2023-03-24T17:11:36.618Z,12.92
2023-03-24T17:14:05.545Z,12.61
2023-03-24T17:16:36.732Z,12.72
2023-03-24T17:19:06.867Z,12.82
2023-03-24T17:21:47.354Z,12.79
2023-03-24T17:24:14.369Z,12.85
2023-03-24T17:26:42.410Z,12.84
2023-03-24T17:29:13.465Z,12.94
2023-03-24T17:31:42.976Z,12.75
2023-03-24T17:34:21.463Z,12.86
2023-03-24T17:36:50.527Z,13.04
2023-03-24T17:39:18.624Z,12.85
2023-03-24T17:41:45.592Z,12.90
2023-03-24T17:44:12.300Z,12.96
2023-03-24T17:46:39.037Z,13.03
2023-03-24T17:49:06.346Z,12.82
2023-03-24T17:51:33.100Z,12.87
2023-03-24T17:53:59.940Z,12.53
2023-03-24T17:56:26.944Z,12.63
2023-03-24T17:58:55.117Z,12.54
2023-03-24T18:01:22.194Z,12.68
2023-03-24T18:03:49.797Z,12.64
2023-03-24T18:06:17.187Z,12.62
2023-03-24T18:08:44.352Z,12.53
2023-03-24T18:11:14.996Z,12.43
2023-03-24T18:13:42.965Z,12.41
2023-03-24T18:16:20.750Z,12.16
2023-03-24T18:18:50.276Z,12.22
2023-03-24T18:21:18.205Z,12.22
2023-03-24T18:23:46.538Z,12.24
2023-03-24T18:26:14.162Z,12.18
2023-03-24T18:28:42.035Z,12.17
2023-03-24T18:31:20.882Z,12.09
2023-03-24T18:33:49.282Z,12.01
2023-03-24T18:36:21.070Z,12.01
2023-03-24T18:38:49.000Z,12.19
2023-03-24T18:41:18.038Z,11.99
2023-03-24T18:43:47.627Z,11.90
2023-03-24T18:46:14.909Z,11.92
2023-03-24T18:48:42.661Z,11.77
2023-03-24T18:51:11.174Z,11.80
2023-03-24T18:53:38.041Z,11.66
2023-03-24T18:56:06.034Z,11.76
2023-03-24T18:58:33.671Z,11.58
2023-03-24T19:01:06.903Z,11.64
2023-03-24T19:03:35.621Z,11.73
2023-03-24T19:06:06.940Z,11.84
2023-03-24T19:08:36.003Z,11.78
2023-03-24T19:11:02.853Z,11.59
2023-03-24T19:13:29.972Z,11.61
2023-03-24T19:15:56.609Z,11.53
2023-03-24T19:18:23.846Z,11.44
2023-03-24T19:20:54.486Z,11.35
2023-03-24T19:23:21.367Z,11.36
2023-03-24T19:25:48.662Z,11.46
2023-03-24T19:28:16.514Z,11.41
2023-03-24T19:30:43.231Z,11.31
2023-03-24T19:33:11.453Z,11.28
2023-03-24T19:35:39.363Z,11.33
2023-03-24T19:38:06.516Z,11.34
2023-03-24T19:40:33.490Z,11.28
2023-03-24T19:43:00.183Z,11.20
2023-03-24T19:45:27.041Z,11.10
2023-03-24T19:47:53.656Z,11.19
2023-03-24T19:50:20.529Z,11.16
2023-03-24T19:52:47.727Z,11.04
2023-03-24T19:55:14.680Z,11.02
2023-03-24T19:57:41.388Z,10.88
2023-03-24T20:00:10.205Z,10.84
2023-03-24T20:02:38.164Z,10.87
2023-03-24T20:05:06.820Z,10.98
2023-03-24T20:07:33.920Z,10.91
2023-03-24T20:10:00.645Z,10.70
2023-03-24T20:12:27.974Z,10.81
2023-03-24T20:14:55.639Z,10.80
2023-03-24T20:17:26.351Z,10.89
2023-03-24T20:19:54.593Z,10.91
2023-03-24T20:22:21.731Z,10.78
2023-03-24T20:24:48.555Z,10.76
2023-03-24T20:27:16.098Z,10.71
2023-03-24T20:29:42.782Z,10.81
2023-03-24T20:32:12.167Z,10.83
2023-03-24T20:34:39.418Z,10.95
2023-03-24T20:37:07.151Z,11.10
2023-03-24T20:39:34.311Z,11.11
2023-03-24T20:42:01.113Z,10.89
2023-03-24T20:44:28.117Z,10.92
2023-03-24T20:46:57.123Z,10.98
2023-03-24T20:49:24.300Z,11.06
2023-03-24T20:51:51.560Z,11.08
2023-03-24T20:54:18.375Z,10.81
2023-03-24T20:56:45.063Z,10.79
2023-03-24T20:59:13.800Z,11.02
2023-03-24T21:01:42.210Z,11.00
2023-03-24T21:04:10.017Z,10.97
2023-03-24T21:06:40.629Z,11.11
2023-03-24T21:09:07.546Z,10.88
2023-03-24T21:11:34.341Z,10.98
2023-03-24T21:14:02.624Z,11.16
2023-03-24T21:16:33.993Z,11.32
2023-03-24T21:19:01.924Z,11.35
2023-03-24T21:21:29.698Z,11.33
2023-03-24T21:23:57.477Z,11.41
2023-03-24T21:26:25.297Z,11.27
2023-03-24T21:28:52.931Z,11.52
2023-03-24T21:31:23.193Z,11.49
2023-03-24T21:33:51.171Z,11.53
2023-03-24T21:36:18.579Z,11.34
2023-03-24T21:38:46.009Z,11.38
2023-03-24T21:41:12.687Z,11.47
2023-03-24T21:43:40.509Z,11.31
2023-03-24T21:46:20.351Z,11.35
2023-03-24T21:48:51.821Z,11.60
2023-03-24T21:51:24.574Z,11.43
2023-03-24T21:53:55.668Z,11.26
2023-03-24T21:56:23.206Z,11.38
2023-03-24T21:58:49.770Z,11.45
2023-03-24T22:01:16.763Z,11.16
2023-03-24T22:03:43.512Z,11.32
2023-03-24T22:06:10.747Z,11.52
2023-03-24T22:08:39.057Z,11.58
2023-03-24T22:11:06.102Z,11.26
2023-03-24T22:13:33.783Z,11.30
2023-03-24T22:16:03.062Z,11.42
2023-03-24T22:18:32.049Z,11.31
2023-03-24T22:21:03.111Z,11.26
2023-03-24T22:23:33.177Z,11.34
2023-03-24T22:26:05.302Z,11.32
2023-03-24T22:28:33.770Z,11.23
2023-03-24T22:31:08.339Z,11.26
2023-03-24T22:33:36.181Z,11.46
2023-03-24T22:36:03.896Z,11.27
2023-03-24T22:38:31.513Z,11.13
2023-03-24T22:40:59.836Z,11.25
2023-03-24T22:43:28.046Z,11.17
2023-03-24T22:45:54.893Z,11.01
2023-03-24T22:48:22.245Z,11.12
2023-03-24T22:50:49.229Z,11.23
2023-03-24T22:53:16.114Z,11.23
2023-03-24T22:55:44.869Z,11.05
2023-03-24T22:58:15.460Z,11.27
2023-03-24T23:00:43.287Z,10.99
2023-03-24T23:03:10.352Z,11.11
2023-03-24T23:05:45.379Z,10.79
2023-03-24T23:08:15.479Z,10.92
2023-03-24T23:10:44.322Z,10.97
2023-03-24T23:13:12.210Z,11.09
2023-03-24T23:15:39.964Z,11.11
2023-03-24T23:18:06.790Z,11.16
2023-03-24T23:20:34.409Z,11.12
2023-03-24T23:23:01.435Z,11.11
2023-03-24T23:25:30.977Z,11.12
2023-03-24T23:27:58.146Z,11.16
2023-03-24T23:30:24.787Z,10.94
2023-03-24T23:32:51.716Z,10.85
2023-03-24T23:35:18.772Z,10.87
2023-03-24T23:37:45.611Z,10.75
2023-03-24T23:40:14.681Z,10.85
2023-03-24T23:42:43.682Z,10.62
2023-03-24T23:45:15.096Z,10.63
2023-03-24T23:47:43.201Z,10.71
2023-03-24T23:50:10.784Z,10.77
2023-03-24T23:52:41.118Z,10.43
2023-03-24T23:55:10.444Z,10.65
2023-03-24T23:57:39.312Z,10.82
